Time;durP1;ratioP1;P1;durP2;ratioP2;P2;SDS_P1;SDS_P2;PMS_P1;PMS_P2;Temp;Humidity;BMP_temperature;BMP_pressure;BME280_temperature;BME280_humidity;BME280_pressure;Samples;Min_cycle;Max_cycle;Signal;HPM_P1;HPM_P2
2023/10/14 00:03:24;;;;;;;10.87;5.73;;;17.50;99.90;;;;;;10523472;28;20201;-90
2023/10/14 00:08:31;;;;;;;8.00;5.40;;;17.50;99.90;;;;;;10541609;28;20209;-90
2023/10/14 00:13:43;;;;;;;10.50;5.45;;;17.50;99.80;;;;;;10540891;28;20287;-90
2023/10/14 00:18:48;;;;;;;11.85;5.28;;;17.40;99.60;;;;;;10540473;28;20549;-90
2023/10/14 00:23:58;;;;;;;12.50;6.00;;;17.50;99.40;;;;;;10541752;28;20201;-90
2023/10/14 00:29:19;;;;;;;8.02;5.47;;;17.40;99.10;;;;;;10527489;28;20231;-90
2023/10/14 00:34:25;;;;;;;8.88;5.90;;;17.40;98.60;;;;;;10521928;28;20221;-90
2023/10/14 00:39:29;;;;;;;15.25;6.28;;;17.30;98.90;;;;;;10538399;28;20652;-90
2023/10/14 00:44:33;;;;;;;8.45;4.45;;;17.20;98.50;;;;;;10539263;28;20559;-91
2023/10/14 00:49:42;;;;;;;6.90;4.68;;;17.10;98.50;;;;;;10540165;28;20243;-90
2023/10/14 00:59:50;;;;;;;10.07;5.90;;;17.10;98.20;;;;;;10538603;28;20201;-90
2023/10/14 01:04:53;;;;;;;11.43;5.00;;;17.10;98.40;;;;;;10539316;28;20225;-90
2023/10/14 01:09:56;;;;;;;10.17;5.03;;;17.10;97.80;;;;;;10537952;28;20576;-90
2023/10/14 01:14:59;;;;;;;14.43;5.87;;;17.00;97.70;;;;;;10536966;28;20637;-91
2023/10/14 01:20:27;;;;;;;24.83;5.53;;;17.00;97.20;;;;;;10520183;28;20205;-90
2023/10/14 01:25:30;;;;;;;11.83;4.90;;;17.00;97.50;;;;;;10539431;28;20197;-90
2023/10/14 01:30:37;;;;;;;7.68;5.03;;;16.90;97.10;;;;;;10537467;28;20263;-90
2023/10/14 01:35:45;;;;;;;16.13;4.97;;;16.90;97.50;;;;;;10520527;28;20218;-90
2023/10/14 01:40:52;;;;;;;7.72;4.25;;;16.90;97.60;;;;;;10537517;28;20206;-90
2023/10/14 01:50:58;;;;;;;6.43;4.27;;;16.80;98.10;;;;;;10537218;28;20210;-90
2023/10/14 01:56:02;;;;;;;12.20;5.70;;;16.80;97.80;;;;;;10537770;28;20263;-90
2023/10/14 02:06:26;;;;;;;14.10;4.33;;;16.60;97.80;;;;;;10537118;28;20695;-90
2023/10/14 02:11:35;;;;;;;12.90;4.93;;;16.60;96.80;;;;;;10518925;28;20202;-90
2023/10/14 02:16:41;;;;;;;12.27;4.37;;;16.70;96.90;;;;;;10518429;28;20217;-90
2023/10/14 02:21:46;;;;;;;15.83;5.27;;;16.90;95.70;;;;;;10535256;28;20478;-90
2023/10/14 02:26:49;;;;;;;8.47;5.43;;;16.90;94.90;;;;;;10527984;28;20202;-90
2023/10/14 02:31:51;;;;;;;3.88;3.35;;;17.10;94.00;;;;;;10536948;28;20197;-90
2023/10/14 02:36:54;;;;;;;11.00;4.17;;;17.20;95.50;;;;;;10524739;28;20206;-90
2023/10/14 02:42:02;;;;;;;6.30;3.50;;;17.30;94.20;;;;;;10536407;28;20389;-91
2023/10/14 02:47:05;;;;;;;4.50;3.90;;;17.40;95.80;;;;;;10535054;28;20254;-89
2023/10/14 02:52:19;;;;;;;9.48;4.13;;;17.60;93.00;;;;;;10536187;28;20235;-89
2023/10/14 03:02:26;;;;;;;9.02;3.25;;;18.00;95.40;;;;;;10535728;28;20198;-90
2023/10/14 03:07:33;;;;;;;5.57;3.40;;;18.20;94.60;;;;;;10535728;28;20302;-89
2023/10/14 03:12:42;;;;;;;8.67;3.77;;;18.20;93.70;;;;;;10517614;28;20252;-90
2023/10/14 03:17:55;;;;;;;7.13;3.47;;;18.30;91.30;;;;;;10535763;28;20247;-89
2023/10/14 03:23:03;;;;;;;6.40;3.93;;;18.40;93.30;;;;;;10535874;28;20664;-89
2023/10/14 03:28:15;;;;;;;6.90;3.73;;;18.40;90.50;;;;;;10535544;28;20255;-90
2023/10/14 03:33:20;;;;;;;6.93;3.53;;;18.50;91.80;;;;;;10517238;28;20274;-90
2023/10/14 03:48:58;;;;;;;9.75;4.30;;;18.50;90.20;;;;;;10542921;28;20209;-90
2023/10/14 03:54:12;;;;;;;4.40;3.07;;;18.40;88.60;;;;;;10524278;28;20221;-90
2023/10/14 03:59:26;;;;;;;4.30;3.90;;;18.40;88.90;;;;;;10542801;28;20267;-90
2023/10/14 04:04:30;;;;;;;10.30;4.67;;;18.40;91.20;;;;;;10540634;28;20589;-90
2023/10/14 04:09:39;;;;;;;7.27;3.73;;;18.30;85.30;;;;;;10523751;28;20737;-91
2023/10/14 04:14:42;;;;;;;9.00;4.70;;;18.20;89.00;;;;;;10540504;28;20247;-90
2023/10/14 04:19:47;;;;;;;4.68;3.70;;;18.20;86.40;;;;;;10540587;28;20206;-90
2023/10/14 04:24:53;;;;;;;7.97;4.25;;;18.10;88.40;;;;;;10522908;28;20281;-91
2023/10/14 04:30:11;;;;;;;6.13;3.50;;;18.00;87.80;;;;;;10541216;28;20202;-91
2023/10/14 04:35:19;;;;;;;7.53;4.13;;;18.00;89.10;;;;;;10540087;28;20240;-91
2023/10/14 04:45:35;;;;;;;10.50;4.75;;;18.10;88.30;;;;;;10539868;28;20210;-91
2023/10/14 04:50:38;;;;;;;11.97;5.50;;;18.00;87.80;;;;;;10538519;28;20206;-92
2023/10/14 04:55:44;;;;;;;18.97;4.73;;;17.80;89.40;;;;;;10539750;28;20243;-91
2023/10/14 05:00:48;;;;;;;12.63;5.13;;;17.70;91.30;;;;;;10538986;28;20571;-91
2023/10/14 05:06:03;;;;;;;7.10;3.73;;;17.60;91.70;;;;;;10539186;28;20583;-91
2023/10/14 05:11:12;;;;;;;11.83;4.70;;;17.40;92.50;;;;;;10538861;28;20547;-91
2023/10/14 05:16:15;;;;;;;8.83;4.03;;;17.20;92.10;;;;;;10531756;28;20221;-92
2023/10/14 05:21:35;;;;;;;9.27;4.07;;;17.10;92.60;;;;;;10538578;28;20247;-92
2023/10/14 05:26:48;;;;;;;6.43;3.63;;;17.10;93.30;;;;;;10520262;28;20231;-90
2023/10/14 05:31:52;;;;;;;14.13;5.03;;;17.00;94.60;;;;;;10537261;28;20210;-91
2023/10/14 05:36:57;;;;;;;12.83;4.27;;;17.00;95.20;;;;;;10536771;28;20221;-91
2023/10/14 05:42:00;;;;;;;10.27;4.80;;;17.00;95.10;;;;;;10519242;28;20660;-91
2023/10/14 05:47:03;;;;;;;6.47;5.27;;;17.10;94.60;;;;;;10532670;28;20263;-90
2023/10/14 05:52:06;;;;;;;5.60;3.90;;;17.10;93.70;;;;;;10523686;28;20629;-92
2023/10/14 05:57:11;;;;;;;11.63;4.13;;;17.10;94.10;;;;;;10536273;28;20218;-91
2023/10/14 06:02:13;;;;;;;7.97;4.20;;;17.20;94.20;;;;;;10536869;28;20186;-91
2023/10/14 06:07:18;;;;;;;10.50;4.33;;;17.20;93.30;;;;;;10536759;28;20646;-91
2023/10/14 06:12:22;;;;;;;13.63;5.90;;;17.10;92.70;;;;;;10536186;28;20198;-91
2023/10/14 06:17:25;;;;;;;14.55;5.05;;;17.20;92.90;;;;;;10534412;28;20267;-91
2023/10/14 06:22:28;;;;;;;10.40;4.70;;;17.20;92.90;;;;;;10536061;28;20197;-91
2023/10/14 06:27:31;;;;;;;15.93;3.97;;;17.30;93.00;;;;;;10517832;28;20563;-91
2023/10/14 06:32:34;;;;;;;6.63;3.55;;;17.30;92.70;;;;;;10534707;28;20194;-91
2023/10/14 06:37:41;;;;;;;6.18;3.63;;;17.40;92.10;;;;;;10536437;28;20217;-91
2023/10/14 06:42:45;;;;;;;9.80;4.53;;;17.50;94.40;;;;;;10535652;28;20198;-91
2023/10/14 06:47:50;;;;;;;9.83;3.90;;;17.50;91.40;;;;;;10536132;28;20202;-91
2023/10/14 06:52:58;;;;;;;7.15;4.15;;;17.60;92.50;;;;;;10534739;28;20220;-90
2023/10/14 06:58:01;;;;;;;4.77;3.63;;;17.60;91.60;;;;;;10534879;28;20243;-90
2023/10/14 07:03:14;;;;;;;9.45;4.30;;;17.70;92.50;;;;;;10533067;28;20227;-91
2023/10/14 07:08:21;;;;;;;7.68;3.83;;;17.70;92.20;;;;;;10534953;28;20341;-90
2023/10/14 07:13:24;;;;;;;8.20;3.47;;;17.60;92.00;;;;;;10537842;28;20201;-91
2023/10/14 07:18:28;;;;;;;9.43;4.63;;;17.60;92.10;;;;;;10543513;28;20201;-93
2023/10/14 07:23:34;;;;;;;7.20;3.53;;;17.70;91.90;;;;;;10542576;28;20557;-92
2023/10/14 07:28:51;;;;;;;3.83;3.47;;;17.90;92.40;;;;;;10524878;28;20209;-91
2023/10/14 07:33:56;;;;;;;6.10;2.88;;;18.20;92.20;;;;;;10523904;28;20209;-92
2023/10/14 07:44:22;;;;;;;6.78;3.10;;;18.60;91.50;;;;;;10534111;28;20243;-92
2023/10/14 07:49:25;;;;;;;8.15;3.70;;;18.70;92.20;;;;;;10540146;28;20600;-91
2023/10/14 07:54:29;;;;;;;10.32;4.13;;;18.80;90.70;;;;;;10536510;28;20279;-90
2023/10/14 07:59:35;;;;;;;6.85;4.07;;;18.90;90.60;;;;;;10540865;28;20189;-92
2023/10/14 08:04:37;;;;;;;4.23;3.00;;;18.90;90.50;;;;;;10522700;28;20573;-91
2023/10/14 08:09:40;;;;;;;5.25;3.05;;;19.10;90.50;;;;;;10538786;28;20198;-91
2023/10/14 08:14:44;;;;;;;3.20;2.65;;;19.40;89.80;;;;;;10539532;28;20251;-93
2023/10/14 08:19:47;;;;;;;9.55;4.03;;;19.60;90.70;;;;;;10542007;28;20826;-93
2023/10/14 08:24:49;;;;;;;3.38;2.88;;;19.60;87.00;;;;;;10522778;28;20202;-93
2023/10/14 08:29:53;;;;;;;4.10;2.75;;;19.80;90.40;;;;;;10523414;28;20198;-92
2023/10/14 08:34:56;;;;;;;10.60;3.37;;;19.80;90.40;;;;;;10538720;28;20243;-92
2023/10/14 08:39:58;;;;;;;6.93;3.28;;;19.80;87.70;;;;;;10540667;28;20247;-92
2023/10/14 08:45:04;;;;;;;4.47;2.80;;;19.90;86.70;;;;;;10530809;28;20255;-93
2023/10/14 08:50:09;;;;;;;5.53;2.50;;;19.90;88.60;;;;;;10521298;28;20248;-93
2023/10/14 08:55:16;;;;;;;4.97;2.23;;;19.90;86.80;;;;;;10521714;28;20274;-93
2023/10/14 09:00:20;;;;;;;6.53;3.13;;;19.90;87.40;;;;;;10536823;28;20278;-93
2023/10/14 09:05:26;;;;;;;3.95;3.38;;;19.90;86.80;;;;;;10536195;28;20573;-93
2023/10/14 09:10:28;;;;;;;4.37;3.30;;;19.90;88.20;;;;;;10539683;28;20255;-92
2023/10/14 09:15:39;;;;;;;7.33;3.70;;;20.00;87.20;;;;;;10539129;28;20210;-93
2023/10/14 09:20:42;;;;;;;6.50;3.10;;;20.00;86.80;;;;;;10539441;28;20209;-93
2023/10/14 09:25:53;;;;;;;3.95;2.80;;;20.10;85.20;;;;;;10539441;28;20252;-93
2023/10/14 09:30:57;;;;;;;4.82;2.33;;;20.20;87.30;;;;;;10537893;28;20224;-93
2023/10/14 09:36:05;;;;;;;4.22;2.22;;;20.00;86.20;;;;;;10537670;28;20217;-92
2023/10/14 09:41:10;;;;;;;4.53;3.00;;;19.80;90.30;;;;;;10537675;28;20209;-93
2023/10/14 09:46:17;;;;;;;2.27;1.90;;;19.40;91.30;;;;;;10537271;28;20198;-93
2023/10/14 09:51:20;;;;;;;1.80;1.20;;;19.00;91.90;;;;;;10536028;28;20205;-93
2023/10/14 09:56:24;;;;;;;2.30;2.10;;;18.70;91.30;;;;;;10537475;28;20221;-93
2023/10/14 10:01:43;;;;;;;2.13;1.40;;;18.70;92.20;;;;;;10536876;28;20198;-92
2023/10/14 10:06:56;;;;;;;3.55;1.45;;;18.50;90.40;;;;;;10536837;28;20229;-92
2023/10/14 10:12:01;;;;;;;1.60;1.17;;;18.20;91.50;;;;;;10534831;28;20613;-92
2023/10/14 10:17:08;;;;;;;1.70;1.60;;;18.00;90.20;;;;;;10536696;28;20217;-93
2023/10/14 10:22:17;;;;;;;2.73;2.13;;;17.90;93.60;;;;;;10535322;28;20247;-93
2023/10/14 10:27:20;;;;;;;1.33;1.23;;;18.00;92.70;;;;;;10535985;28;20258;-92
2023/10/14 10:32:29;;;;;;;1.33;0.93;;;17.80;92.70;;;;;;10535098;28;20212;-92
2023/10/14 10:37:36;;;;;;;3.88;0.65;;;17.70;93.00;;;;;;10534653;28;20213;-92
2023/10/14 10:42:45;;;;;;;2.47;1.90;;;17.50;93.80;;;;;;10532410;28;20186;-91
2023/10/14 10:47:54;;;;;;;2.77;2.20;;;17.10;96.30;;;;;;10537411;28;20194;-91
2023/10/14 10:53:06;;;;;;;2.50;1.80;;;16.80;99.20;;;;;;10543267;28;20209;-91
2023/10/14 10:58:13;;;;;;;1.60;1.20;;;16.70;99.20;;;;;;10543171;28;20599;-91
2023/10/14 11:03:16;;;;;;;1.40;0.90;;;16.60;99.80;;;;;;10543227;28;20229;-93
2023/10/14 11:08:22;;;;;;;1.07;0.70;;;16.40;99.90;;;;;;10543387;28;20201;-92
2023/10/14 11:13:26;;;;;;;2.37;1.37;;;16.40;99.60;;;;;;10543795;28;20201;-91
2023/10/14 11:18:30;;;;;;;1.77;1.43;;;16.50;99.90;;;;;;10543179;28;20264;-91
2023/10/14 11:23:42;;;;;;;1.60;1.33;;;16.50;99.90;;;;;;10543395;28;20561;-92
2023/10/14 11:28:48;;;;;;;1.37;0.87;;;16.70;99.90;;;;;;10541528;28;20538;-91
2023/10/14 11:33:55;;;;;;;1.10;0.82;;;16.70;99.90;;;;;;10541814;28;20201;-91
2023/10/14 11:39:02;;;;;;;2.30;2.10;;;16.80;99.60;;;;;;10542886;28;20210;-92
2023/10/14 11:44:05;;;;;;;1.52;1.42;;;17.00;99.90;;;;;;10541118;28;20267;-91
2023/10/14 11:49:09;;;;;;;1.70;1.27;;;17.40;99.10;;;;;;10540423;28;20213;-93
2023/10/14 11:54:15;;;;;;;2.15;1.40;;;17.30;98.00;;;;;;10538302;28;20567;-93
2023/10/14 11:59:18;;;;;;;1.80;0.60;;;17.30;97.90;;;;;;10539929;28;20243;-93
2023/10/14 12:04:20;;;;;;;2.47;0.80;;;17.70;96.30;;;;;;10540894;28;20285;-92
2023/10/14 12:09:23;;;;;;;3.33;0.80;;;17.90;91.60;;;;;;10541972;28;20186;-92
2023/10/14 12:14:27;;;;;;;1.30;0.67;;;17.60;93.80;;;;;;10540232;28;20350;-94
2023/10/14 12:19:29;;;;;;;1.63;0.90;;;17.40;93.30;;;;;;10541629;28;20264;-93
2023/10/14 12:24:32;;;;;;;2.07;0.83;;;17.40;93.80;;;;;;10540752;28;20201;-93
2023/10/14 12:29:35;;;;;;;1.40;0.50;;;17.40;94.10;;;;;;10507250;28;20194;-93
2023/10/14 12:34:43;;;;;;;2.17;0.70;;;17.60;92.60;;;;;;10541320;28;20634;-94
2023/10/14 12:39:55;;;;;;;3.60;0.70;;;17.40;92.40;;;;;;10538684;28;20563;-92
2023/10/14 12:45:00;;;;;;;1.20;0.57;;;17.30;92.00;;;;;;10497540;28;20198;-93
2023/10/14 12:50:03;;;;;;;1.20;0.50;;;17.40;91.00;;;;;;10463304;28;20210;-92
2023/10/14 12:55:22;;;;;;;0.40;0.40;;;17.60;89.60;;;;;;10512466;28;20226;-92
2023/10/14 13:00:25;;;;;;;1.90;0.90;;;17.60;92.60;;;;;;10539011;28;20202;-92
2023/10/14 13:05:28;;;;;;;1.33;0.47;;;17.60;87.50;;;;;;10538238;28;20229;-92
2023/10/14 13:10:32;;;;;;;2.13;0.82;;;17.80;85.70;;;;;;10529914;28;20206;-91
2023/10/14 13:15:35;;;;;;;1.25;0.50;;;17.90;87.10;;;;;;10537537;28;20266;-92
2023/10/14 13:20:38;;;;;;;1.93;1.00;;;18.00;88.40;;;;;;10537045;28;20620;-91
2023/10/14 13:25:40;;;;;;;2.40;1.03;;;17.60;78.30;;;;;;10508429;28;20202;-90
2023/10/14 13:30:46;;;;;;;4.28;1.10;;;17.60;76.70;;;;;;10536984;28;20728;-91
2023/10/14 13:35:49;;;;;;;2.93;0.90;;;17.70;64.40;;;;;;10542154;28;20652;-86
2023/10/14 13:40:53;;;;;;;2.77;1.20;;;17.70;46.00;;;;;;10537880;28;20194;-86
2023/10/14 13:45:55;;;;;;;9.33;1.33;;;17.60;46.90;;;;;;10537575;28;20219;-86
2023/10/14 13:50:58;;;;;;;5.10;1.45;;;17.30;46.50;;;;;;10519227;28;20232;-86
2023/10/14 13:56:03;;;;;;;4.90;1.27;;;16.90;46.80;;;;;;10535332;28;20307;-86
2023/10/14 14:01:07;;;;;;;6.27;1.70;;;17.00;54.70;;;;;;10536856;28;20193;-87
2023/10/14 14:06:10;;;;;;;4.03;1.20;;;17.00;53.10;;;;;;10536565;28;20247;-87
2023/10/14 14:11:13;;;;;;;3.70;1.00;;;17.00;52.90;;;;;;10536622;28;20255;-87
2023/10/14 14:16:18;;;;;;;3.53;1.25;;;16.90;56.50;;;;;;10534872;28;20680;-87
2023/10/14 14:21:21;;;;;;;7.60;1.23;;;16.80;59.00;;;;;;10534462;28;20202;-86
2023/10/14 14:26:23;;;;;;;7.57;1.70;;;16.80;54.80;;;;;;10534474;28;20197;-87
2023/10/14 14:31:27;;;;;;;6.87;2.03;;;16.80;53.70;;;;;;10536176;28;20561;-87
2023/10/14 14:36:30;;;;;;;4.67;0.90;;;16.70;54.70;;;;;;10535800;28;20214;-87
2023/10/14 14:41:33;;;;;;;3.77;1.30;;;16.80;59.40;;;;;;10534119;28;20302;-87
2023/10/14 14:46:36;;;;;;;9.27;0.93;;;16.80;52.80;;;;;;10535951;28;20240;-87
2023/10/14 14:51:42;;;;;;;4.03;1.40;;;16.90;54.90;;;;;;10535505;28;20251;-87
2023/10/14 14:56:45;;;;;;;3.03;1.10;;;16.80;54.40;;;;;;10535126;28;20310;-87
2023/10/14 15:01:48;;;;;;;6.20;1.03;;;16.80;62.20;;;;;;10534575;28;20247;-87
2023/10/14 15:06:53;;;;;;;2.60;1.33;;;16.60;57.50;;;;;;10534710;28;20283;-87
2023/10/14 15:11:56;;;;;;;8.23;2.50;;;16.70;61.30;;;;;;10535363;28;20197;-87
2023/10/14 15:16:58;;;;;;;2.23;1.00;;;16.20;52.40;;;;;;10534594;28;20286;-88
2023/10/14 15:22:03;;;;;;;6.83;1.00;;;16.20;62.50;;;;;;10535014;28;20260;-88
2023/10/14 15:27:07;;;;;;;3.63;1.00;;;16.30;74.60;;;;;;10535365;28;20614;-88
2023/10/14 15:32:10;;;;;;;2.28;1.23;;;16.40;68.10;;;;;;10534017;28;20227;-88
2023/10/14 15:37:13;;;;;;;5.27;2.57;;;16.40;70.50;;;;;;10540924;28;20217;-88
2023/10/14 15:42:16;;;;;;;2.90;1.43;;;16.20;75.10;;;;;;10541509;28;20244;-87
2023/10/14 15:47:18;;;;;;;7.80;1.97;;;16.10;79.30;;;;;;10541964;28;20672;-87
2023/10/14 15:52:21;;;;;;;4.70;1.93;;;15.90;77.20;;;;;;10541985;28;20218;-88
2023/10/14 15:57:23;;;;;;;3.28;1.35;;;15.80;76.00;;;;;;10541848;28;20211;-87
2023/10/14 16:02:28;;;;;;;2.93;1.40;;;15.80;82.70;;;;;;10503545;28;20550;-88
2023/10/14 16:07:30;;;;;;;3.40;0.70;;;15.60;83.10;;;;;;10497847;28;20249;-87
2023/10/14 16:12:36;;;;;;;9.05;1.13;;;15.90;83.70;;;;;;10499091;28;20251;-88
2023/10/14 16:17:40;;;;;;;5.13;1.98;;;16.20;79.20;;;;;;10499405;28;20222;-88
2023/10/14 16:22:47;;;;;;;2.35;0.82;;;16.20;67.70;;;;;;10499240;28;20202;-88
2023/10/14 16:27:51;;;;;;;2.28;0.80;;;16.30;80.10;;;;;;10497563;28;20259;-88
2023/10/14 16:32:55;;;;;;;2.55;0.90;;;16.40;71.70;;;;;;10498359;28;20202;-88
2023/10/14 16:37:59;;;;;;;2.58;1.17;;;16.50;76.10;;;;;;10496138;28;20230;-88
2023/10/14 16:43:04;;;;;;;5.78;1.42;;;16.40;75.20;;;;;;10498023;28;20228;-88
2023/10/14 16:48:07;;;;;;;2.47;0.85;;;16.70;63.60;;;;;;10497506;28;20572;-88
2023/10/14 16:53:11;;;;;;;4.57;1.60;;;16.70;74.80;;;;;;10511807;28;20326;-88
2023/10/14 16:58:14;;;;;;;2.83;1.45;;;16.60;76.50;;;;;;10539033;28;20221;-87
2023/10/14 17:03:22;;;;;;;4.10;1.27;;;16.50;77.30;;;;;;10538350;28;20283;-88
2023/10/14 17:08:30;;;;;;;5.50;1.40;;;16.50;74.50;;;;;;10537991;28;20254;-88
2023/10/14 17:13:34;;;;;;;3.00;0.85;;;16.40;71.90;;;;;;10536822;28;20676;-88
2023/10/14 17:18:37;;;;;;;3.03;1.42;;;16.20;77.20;;;;;;10536451;28;20591;-88
2023/10/14 17:23:40;;;;;;;6.65;1.50;;;16.10;74.40;;;;;;10537551;28;20240;-88
2023/10/14 17:28:42;;;;;;;3.17;1.33;;;15.70;66.00;;;;;;10536608;28;20246;-88
2023/10/14 17:33:48;;;;;;;3.23;0.90;;;15.60;73.90;;;;;;10537228;28;20201;-88
2023/10/14 17:38:51;;;;;;;4.63;1.33;;;15.10;72.20;;;;;;10537502;28;20221;-88
2023/10/14 17:43:54;;;;;;;2.45;1.52;;;14.40;70.90;;;;;;10536812;28;20235;-88
2023/10/14 17:49:00;;;;;;;4.90;1.70;;;14.20;74.00;;;;;;10518915;28;20231;-88
2023/10/14 17:54:02;;;;;;;4.82;1.42;;;14.40;90.50;;;;;;10534722;28;20205;-89
2023/10/14 17:59:05;;;;;;;4.38;2.33;;;14.10;90.70;;;;;;10534566;28;20221;-88
2023/10/14 18:04:07;;;;;;;3.45;1.50;;;14.30;93.50;;;;;;10535000;28;20225;-88
2023/10/14 18:09:13;;;;;;;5.77;1.40;;;14.50;93.30;;;;;;10535482;28;20263;-88
2023/10/14 18:14:16;;;;;;;7.60;4.22;;;14.50;94.70;;;;;;10536307;28;20197;-89
2023/10/14 18:19:19;;;;;;;3.90;2.13;;;14.20;86.80;;;;;;10535700;28;20205;-89
2023/10/14 18:24:22;;;;;;;5.25;1.50;;;14.10;91.80;;;;;;10535735;28;20206;-89
2023/10/14 18:29:25;;;;;;;2.45;1.33;;;14.30;92.20;;;;;;10535484;28;20584;-89
2023/10/14 18:34:28;;;;;;;3.42;1.25;;;14.50;93.00;;;;;;10535674;28;20267;-89
2023/10/14 18:39:31;;;;;;;3.33;2.10;;;14.80;93.50;;;;;;10535471;28;20629;-89
2023/10/14 18:44:34;;;;;;;8.33;3.60;;;15.00;92.70;;;;;;10534515;28;20216;-89
2023/10/14 18:49:39;;;;;;;4.90;1.98;;;14.80;87.00;;;;;;10534085;28;20193;-89
2023/10/14 18:54:41;;;;;;;10.23;3.50;;;14.70;84.60;;;;;;10531049;28;20221;-88
2023/10/14 18:59:44;;;;;;;4.93;2.42;;;14.50;88.00;;;;;;10534104;28;20715;-87
2023/10/14 19:04:47;;;;;;;3.60;2.28;;;14.70;93.90;;;;;;10535653;28;20217;-87
2023/10/14 19:09:50;;;;;;;2.47;1.42;;;14.80;89.70;;;;;;10534495;28;20199;-87
2023/10/14 19:14:52;;;;;;;3.40;1.35;;;14.70;89.10;;;;;;10545686;28;20605;-87
2023/10/14 19:19:55;;;;;;;5.78;2.47;;;14.80;94.10;;;;;;10551345;28;20210;-87
2023/10/14 19:24:59;;;;;;;2.58;1.75;;;15.00;91.50;;;;;;10553856;28;20186;-88
2023/10/14 19:30:06;;;;;;;3.92;1.65;;;14.70;90.50;;;;;;10533137;28;20224;-86
2023/10/14 19:35:14;;;;;;;5.50;2.90;;;14.60;90.10;;;;;;10530859;28;20203;-88
2023/10/14 19:40:17;;;;;;;3.65;1.42;;;14.80;88.30;;;;;;10553120;28;20225;-87
2023/10/14 19:45:20;;;;;;;2.85;1.38;;;14.50;89.10;;;;;;10550780;28;20194;-87
2023/10/14 19:50:28;;;;;;;2.42;1.10;;;14.20;85.90;;;;;;10554879;28;20223;-88
2023/10/14 19:55:32;;;;;;;1.50;0.90;;;14.50;91.80;;;;;;10540952;28;20228;-88
2023/10/14 20:00:38;;;;;;;3.13;1.55;;;14.30;94.60;;;;;;10546180;28;20221;-88
2023/10/14 20:05:47;;;;;;;1.65;1.20;;;14.10;92.30;;;;;;10537661;28;20225;-88
2023/10/14 20:10:53;;;;;;;1.65;0.95;;;14.30;97.40;;;;;;10536843;28;20206;-88
2023/10/14 20:15:57;;;;;;;2.80;1.20;;;14.30;95.70;;;;;;10540530;28;20216;-88
2023/10/14 20:21:02;;;;;;;1.48;1.10;;;14.30;95.60;;;;;;10539379;28;20241;-88
2023/10/14 20:26:09;;;;;;;3.65;1.70;;;14.70;98.50;;;;;;10529902;28;20227;-89
2023/10/14 20:31:18;;;;;;;4.93;1.45;;;14.50;92.70;;;;;;10538669;28;20198;-89
2023/10/14 20:36:23;;;;;;;2.78;1.27;;;14.10;92.90;;;;;;10535132;28;20275;-87
2023/10/14 20:41:27;;;;;;;2.72;1.48;;;14.00;93.20;;;;;;10519867;28;20197;-88
2023/10/14 20:46:31;;;;;;;3.60;1.30;;;13.80;94.00;;;;;;10538669;28;20211;-88
2023/10/14 20:51:33;;;;;;;2.30;1.33;;;13.70;94.90;;;;;;10537962;28;20210;-88
2023/10/14 20:56:36;;;;;;;2.17;1.17;;;13.70;95.00;;;;;;10538070;28;20266;-88
2023/10/14 21:01:40;;;;;;;4.47;1.13;;;13.70;95.00;;;;;;10514877;28;20234;-88
2023/10/14 21:06:43;;;;;;;3.50;1.52;;;13.30;91.60;;;;;;10508552;28;20265;-88
2023/10/14 21:11:45;;;;;;;3.22;1.02;;;13.30;88.20;;;;;;10518771;28;20307;-88
2023/10/14 21:16:48;;;;;;;2.67;1.02;;;13.40;94.10;;;;;;10512240;28;20634;-88
2023/10/14 21:21:52;;;;;;;5.97;1.20;;;13.40;94.30;;;;;;10521583;28;20568;-87
2023/10/14 21:26:55;;;;;;;2.92;1.00;;;13.40;93.90;;;;;;10533106;28;20271;-88
2023/10/14 21:31:57;;;;;;;2.75;1.02;;;13.40;95.90;;;;;;10534043;28;20206;-88
2023/10/14 21:37:01;;;;;;;2.90;0.90;;;13.50;91.30;;;;;;10535913;28;20286;-88
2023/10/14 21:42:07;;;;;;;1.13;0.70;;;13.80;84.50;;;;;;10527711;28;20285;-88
2023/10/14 21:47:09;;;;;;;1.98;0.68;;;13.90;96.30;;;;;;10534412;28;20197;-88
2023/10/14 21:52:12;;;;;;;3.83;1.00;;;14.40;92.50;;;;;;10533885;28;20202;-87
2023/10/14 21:57:15;;;;;;;1.40;0.77;;;14.10;88.80;;;;;;10533538;28;20213;-88
2023/10/14 22:02:19;;;;;;;3.80;0.75;;;14.10;93.90;;;;;;10533931;28;20664;-88
2023/10/14 22:07:23;;;;;;;5.10;1.38;;;14.30;91.90;;;;;;10534360;28;20275;-88
2023/10/14 22:12:28;;;;;;;2.00;1.00;;;13.80;83.30;;;;;;10535555;28;20219;-88
2023/10/14 22:17:31;;;;;;;3.65;1.48;;;13.80;90.80;;;;;;10529768;28;20310;-88
2023/10/14 22:22:33;;;;;;;3.47;0.93;;;13.70;89.90;;;;;;10533843;28;20202;-88
2023/10/14 22:27:36;;;;;;;1.95;0.77;;;13.50;93.00;;;;;;10533806;28;20224;-88
2023/10/14 22:32:41;;;;;;;1.20;0.73;;;13.60;96.20;;;;;;10535199;28;20242;-88
2023/10/14 22:37:46;;;;;;;3.53;0.57;;;13.70;93.00;;;;;;10516215;28;20282;-88
2023/10/14 22:42:48;;;;;;;4.68;1.25;;;13.70;92.80;;;;;;10535109;28;20267;-88
2023/10/14 22:47:51;;;;;;;1.80;0.80;;;13.60;93.70;;;;;;10534351;28;20201;-88
2023/10/14 22:52:54;;;;;;;8.20;1.35;;;13.60;90.40;;;;;;10519942;28;20214;-88
2023/10/14 22:57:57;;;;;;;4.40;1.58;;;13.60;93.00;;;;;;10504669;28;20214;-88
2023/10/14 23:02:59;;;;;;;2.35;0.93;;;13.40;91.60;;;;;;10531257;28;20259;-87
2023/10/14 23:08:09;;;;;;;4.40;0.80;;;13.20;92.40;;;;;;10533601;28;20206;-88
2023/10/14 23:13:13;;;;;;;1.67;0.73;;;13.70;96.70;;;;;;10532599;28;20616;-87
2023/10/14 23:18:16;;;;;;;2.55;0.73;;;13.50;95.40;;;;;;10532002;28;20689;-88
2023/10/14 23:23:18;;;;;;;1.80;1.00;;;13.40;94.50;;;;;;10533323;28;20190;-88
2023/10/14 23:28:21;;;;;;;3.90;1.37;;;13.40;96.10;;;;;;10516766;28;20255;-88
2023/10/14 23:33:23;;;;;;;1.63;1.17;;;13.30;93.60;;;;;;10533049;28;20198;-88
2023/10/14 23:38:26;;;;;;;2.63;1.15;;;13.60;94.80;;;;;;10533065;28;20279;-87
2023/10/14 23:43:29;;;;;;;3.97;1.10;;;13.70;93.70;;;;;;10533262;28;20560;-88
2023/10/14 23:48:32;;;;;;;4.45;1.48;;;14.00;93.30;;;;;;10533033;28;20194;-88
2023/10/14 23:53:34;;;;;;;0.85;0.65;;;13.80;94.30;;;;;;10532365;28;20613;-88
2023/10/14 23:58:37;;;;;;;6.27;1.23;;;13.70;96.10;;;;;;10537269;28;20307;-87
